Santana de Cataguases, Brazil
Current Conditions -  °F | °C
As of 2:00 PM on Saturday 22 Nov 2014 (Local Time) from SBBQ Reporting Station
Broken Clouds Broken Clouds  
Wind Chill: 84°   Ceiling: 4700
Heat Index: 84°   Visibility: 6mi
Dew Point: 57°   Wind: 8mph
Humidity: 40%   Direction: 310°NW
Pressure: 30.09"   Gusts: NA
Location:  21.29°S, 42.56°W
Report Text: SBBQ 221600Z 31007KT 9999 BKN047 29/14 Q1019
Loading
Personal Weather Stations






























Interactive Weather Map New forecast layout! Learn more

10-Day Weather Forecast

Advertisements
Track Severe Weather on mobile